sensor_id;sensor_type;location;lat;lon;timestamp;P1;durP1;ratioP1;P2;durP2;ratioP2
62123;SDS011;48110;47.532;19.078;2022-07-01T00:00:37;10.85;;;4.00;;
62123;SDS011;48110;47.532;19.078;2022-07-01T00:03:40;8.65;;;3.92;;
62123;SDS011;48110;47.532;19.078;2022-07-01T00:06:51;5.15;;;3.72;;
62123;SDS011;48110;47.532;19.078;2022-07-01T00:09:54;8.02;;;3.35;;
62123;SDS011;48110;47.532;19.078;2022-07-01T00:12:57;7.60;;;3.58;;
62123;SDS011;48110;47.532;19.078;2022-07-01T00:16:00;6.85;;;3.65;;
62123;SDS011;48110;47.532;19.078;2022-07-01T00:19:03;6.50;;;3.45;;
62123;SDS011;48110;47.532;19.078;2022-07-01T00:22:08;8.43;;;3.85;;
62123;SDS011;48110;47.532;19.078;2022-07-01T00:25:10;7.87;;;3.70;;
62123;SDS011;48110;47.532;19.078;2022-07-01T00:28:13;8.93;;;3.70;;
62123;SDS011;48110;47.532;19.078;2022-07-01T00:31:16;7.95;;;3.95;;
62123;SDS011;48110;47.532;19.078;2022-07-01T00:34:19;6.60;;;3.60;;
62123;SDS011;48110;47.532;19.078;2022-07-01T00:37:22;8.38;;;3.42;;
62123;SDS011;48110;47.532;19.078;2022-07-01T00:40:25;9.45;;;4.50;;
62123;SDS011;48110;47.532;19.078;2022-07-01T00:43:33;10.20;;;3.60;;
62123;SDS011;48110;47.532;19.078;2022-07-01T00:46:57;9.10;;;3.55;;
62123;SDS011;48110;47.532;19.078;2022-07-01T00:50:07;7.72;;;3.75;;
62123;SDS011;48110;47.532;19.078;2022-07-01T00:53:12;9.63;;;3.80;;
62123;SDS011;48110;47.532;19.078;2022-07-01T00:56:17;17.25;;;3.80;;
62123;SDS011;48110;47.532;19.078;2022-07-01T00:59:20;9.75;;;3.80;;
62123;SDS011;48110;47.532;19.078;2022-07-01T01:02:23;9.43;;;3.72;;
62123;SDS011;48110;47.532;19.078;2022-07-01T01:05:26;9.15;;;3.60;;
62123;SDS011;48110;47.532;19.078;2022-07-01T01:08:29;10.85;;;4.03;;
62123;SDS011;48110;47.532;19.078;2022-07-01T01:11:32;7.68;;;4.12;;
62123;SDS011;48110;47.532;19.078;2022-07-01T01:14:47;13.75;;;4.10;;
62123;SDS011;48110;47.532;19.078;2022-07-01T01:17:51;8.52;;;3.58;;
62123;SDS011;48110;47.532;19.078;2022-07-01T01:20:57;10.30;;;4.20;;
62123;SDS011;48110;47.532;19.078;2022-07-01T01:23:59;8.20;;;3.85;;
62123;SDS011;48110;47.532;19.078;2022-07-01T01:27:06;10.48;;;4.20;;
62123;SDS011;48110;47.532;19.078;2022-07-01T01:30:11;7.80;;;4.35;;
62123;SDS011;48110;47.532;19.078;2022-07-01T01:33:15;8.25;;;4.30;;
62123;SDS011;48110;47.532;19.078;2022-07-01T01:36:18;6.57;;;4.00;;
62123;SDS011;48110;47.532;19.078;2022-07-01T01:39:20;7.05;;;4.05;;
62123;SDS011;48110;47.532;19.078;2022-07-01T01:42:23;8.02;;;4.20;;
62123;SDS011;48110;47.532;19.078;2022-07-01T01:45:26;10.70;;;4.12;;
62123;SDS011;48110;47.532;19.078;2022-07-01T01:48:29;10.50;;;4.03;;
62123;SDS011;48110;47.532;19.078;2022-07-01T01:51:33;8.43;;;4.18;;
62123;SDS011;48110;47.532;19.078;2022-07-01T01:54:36;12.40;;;4.72;;
62123;SDS011;48110;47.532;19.078;2022-07-01T01:57:40;10.77;;;4.32;;
62123;SDS011;48110;47.532;19.078;2022-07-01T02:00:43;7.22;;;4.10;;
62123;SDS011;48110;47.532;19.078;2022-07-01T02:03:46;11.68;;;4.22;;
62123;SDS011;48110;47.532;19.078;2022-07-01T02:06:51;8.52;;;3.95;;
62123;SDS011;48110;47.532;19.078;2022-07-01T02:09:54;8.23;;;4.62;;
62123;SDS011;48110;47.532;19.078;2022-07-01T02:12:57;8.13;;;4.12;;
62123;SDS011;48110;47.532;19.078;2022-07-01T02:16:00;5.40;;;3.67;;
62123;SDS011;48110;47.532;19.078;2022-07-01T02:19:03;9.52;;;4.47;;
62123;SDS011;48110;47.532;19.078;2022-07-01T02:22:06;8.38;;;4.72;;
62123;SDS011;48110;47.532;19.078;2022-07-01T02:25:09;9.65;;;4.55;;
62123;SDS011;48110;47.532;19.078;2022-07-01T02:28:12;7.53;;;4.53;;
62123;SDS011;48110;47.532;19.078;2022-07-01T02:31:14;9.05;;;4.57;;
62123;SDS011;48110;47.532;19.078;2022-07-01T02:34:17;8.18;;;4.43;;
62123;SDS011;48110;47.532;19.078;2022-07-01T02:37:20;8.73;;;4.50;;
62123;SDS011;48110;47.532;19.078;2022-07-01T02:40:23;8.23;;;5.05;;
62123;SDS011;48110;47.532;19.078;2022-07-01T02:43:25;16.50;;;6.05;;
62123;SDS011;48110;47.532;19.078;2022-07-01T02:46:28;12.10;;;5.57;;
62123;SDS011;48110;47.532;19.078;2022-07-01T02:49:31;9.15;;;5.50;;
62123;SDS011;48110;47.532;19.078;2022-07-01T02:52:34;12.50;;;5.75;;
62123;SDS011;48110;47.532;19.078;2022-07-01T02:55:38;12.25;;;5.37;;
62123;SDS011;48110;47.532;19.078;2022-07-01T02:58:41;11.63;;;5.45;;
62123;SDS011;48110;47.532;19.078;2022-07-01T03:01:44;12.52;;;6.03;;
62123;SDS011;48110;47.532;19.078;2022-07-01T03:04:47;10.43;;;5.28;;
62123;SDS011;48110;47.532;19.078;2022-07-01T03:07:51;10.90;;;5.03;;
62123;SDS011;48110;47.532;19.078;2022-07-01T03:10:53;8.82;;;4.70;;
62123;SDS011;48110;47.532;19.078;2022-07-01T03:13:56;9.82;;;4.97;;
62123;SDS011;48110;47.532;19.078;2022-07-01T03:16:59;12.45;;;4.82;;
62123;SDS011;48110;47.532;19.078;2022-07-01T03:20:02;9.43;;;5.43;;
62123;SDS011;48110;47.532;19.078;2022-07-01T03:23:06;11.70;;;5.30;;
62123;SDS011;48110;47.532;19.078;2022-07-01T03:26:09;7.72;;;5.05;;
62123;SDS011;48110;47.532;19.078;2022-07-01T03:29:12;9.30;;;4.85;;
62123;SDS011;48110;47.532;19.078;2022-07-01T03:32:14;13.65;;;5.80;;
62123;SDS011;48110;47.532;19.078;2022-07-01T03:35:17;11.50;;;5.62;;
62123;SDS011;48110;47.532;19.078;2022-07-01T03:38:41;11.63;;;5.03;;
62123;SDS011;48110;47.532;19.078;2022-07-01T03:41:45;14.82;;;5.93;;
62123;SDS011;48110;47.532;19.078;2022-07-01T03:44:48;8.43;;;5.32;;
62123;SDS011;48110;47.532;19.078;2022-07-01T03:47:51;12.98;;;5.32;;
62123;SDS011;48110;47.532;19.078;2022-07-01T03:50:53;8.40;;;5.10;;
62123;SDS011;48110;47.532;19.078;2022-07-01T03:53:56;15.35;;;5.68;;
62123;SDS011;48110;47.532;19.078;2022-07-01T03:57:17;14.32;;;5.50;;
62123;SDS011;48110;47.532;19.078;2022-07-01T04:00:20;8.52;;;5.60;;
62123;SDS011;48110;47.532;19.078;2022-07-01T04:03:23;8.70;;;4.72;;
62123;SDS011;48110;47.532;19.078;2022-07-01T04:06:27;13.35;;;5.57;;
62123;SDS011;48110;47.532;19.078;2022-07-01T04:09:30;9.90;;;4.87;;
62123;SDS011;48110;47.532;19.078;2022-07-01T04:12:33;11.52;;;5.80;;
62123;SDS011;48110;47.532;19.078;2022-07-01T04:15:35;9.60;;;5.30;;
62123;SDS011;48110;47.532;19.078;2022-07-01T04:18:38;11.63;;;5.47;;
62123;SDS011;48110;47.532;19.078;2022-07-01T04:21:41;9.00;;;5.40;;
62123;SDS011;48110;47.532;19.078;2022-07-01T04:25:03;12.80;;;5.30;;
62123;SDS011;48110;47.532;19.078;2022-07-01T04:28:08;13.07;;;5.75;;
62123;SDS011;48110;47.532;19.078;2022-07-01T04:31:11;10.50;;;5.65;;
62123;SDS011;48110;47.532;19.078;2022-07-01T04:34:14;10.63;;;5.37;;
62123;SDS011;48110;47.532;19.078;2022-07-01T04:37:16;11.12;;;5.35;;
62123;SDS011;48110;47.532;19.078;2022-07-01T04:40:19;9.35;;;5.10;;
62123;SDS011;48110;47.532;19.078;2022-07-01T04:43:22;11.10;;;5.75;;
62123;SDS011;48110;47.532;19.078;2022-07-01T04:46:25;13.62;;;5.57;;
62123;SDS011;48110;47.532;19.078;2022-07-01T04:49:28;15.15;;;6.12;;
62123;SDS011;48110;47.532;19.078;2022-07-01T04:52:31;13.90;;;5.85;;
62123;SDS011;48110;47.532;19.078;2022-07-01T04:55:34;14.32;;;6.93;;
62123;SDS011;48110;47.532;19.078;2022-07-01T04:58:37;11.48;;;6.45;;
62123;SDS011;48110;47.532;19.078;2022-07-01T05:01:43;15.88;;;7.50;;
62123;SDS011;48110;47.532;19.078;2022-07-01T05:04:47;19.45;;;7.32;;
62123;SDS011;48110;47.532;19.078;2022-07-01T05:07:50;17.60;;;7.32;;
62123;SDS011;48110;47.532;19.078;2022-07-01T05:10:54;18.37;;;6.53;;
62123;SDS011;48110;47.532;19.078;2022-07-01T05:13:57;11.27;;;6.28;;
62123;SDS011;48110;47.532;19.078;2022-07-01T05:17:00;16.85;;;7.15;;
62123;SDS011;48110;47.532;19.078;2022-07-01T05:20:03;19.33;;;7.40;;
62123;SDS011;48110;47.532;19.078;2022-07-01T05:23:25;12.52;;;6.80;;
62123;SDS011;48110;47.532;19.078;2022-07-01T05:26:29;15.13;;;7.60;;
62123;SDS011;48110;47.532;19.078;2022-07-01T05:29:32;19.35;;;6.80;;
62123;SDS011;48110;47.532;19.078;2022-07-01T05:32:34;21.00;;;7.00;;
62123;SDS011;48110;47.532;19.078;2022-07-01T05:35:38;13.52;;;6.68;;
62123;SDS011;48110;47.532;19.078;2022-07-01T05:38:41;12.57;;;6.53;;
62123;SDS011;48110;47.532;19.078;2022-07-01T05:41:44;13.55;;;6.60;;
62123;SDS011;48110;47.532;19.078;2022-07-01T05:44:47;20.12;;;6.97;;
62123;SDS011;48110;47.532;19.078;2022-07-01T05:47:50;15.20;;;7.20;;
62123;SDS011;48110;47.532;19.078;2022-07-01T05:50:53;57.00;;;8.40;;
62123;SDS011;48110;47.532;19.078;2022-07-01T05:53:56;17.08;;;6.82;;
62123;SDS011;48110;47.532;19.078;2022-07-01T05:56:59;68.15;;;8.77;;
62123;SDS011;48110;47.532;19.078;2022-07-01T06:00:02;17.02;;;6.62;;
62123;SDS011;48110;47.532;19.078;2022-07-01T06:03:14;19.98;;;7.03;;
62123;SDS011;48110;47.532;19.078;2022-07-01T06:06:17;12.90;;;6.78;;
62123;SDS011;48110;47.532;19.078;2022-07-01T06:09:21;17.17;;;6.72;;
62123;SDS011;48110;47.532;19.078;2022-07-01T06:12:24;11.80;;;5.40;;
62123;SDS011;48110;47.532;19.078;2022-07-01T06:15:27;10.57;;;4.72;;
62123;SDS011;48110;47.532;19.078;2022-07-01T06:18:30;14.77;;;5.18;;
62123;SDS011;48110;47.532;19.078;2022-07-01T06:21:32;11.90;;;5.40;;
62123;SDS011;48110;47.532;19.078;2022-07-01T06:24:35;9.52;;;5.25;;
62123;SDS011;48110;47.532;19.078;2022-07-01T06:27:39;11.25;;;5.18;;
62123;SDS011;48110;47.532;19.078;2022-07-01T06:30:46;16.90;;;4.80;;
62123;SDS011;48110;47.532;19.078;2022-07-01T06:33:48;10.60;;;5.10;;
62123;SDS011;48110;47.532;19.078;2022-07-01T06:36:52;12.10;;;4.97;;
62123;SDS011;48110;47.532;19.078;2022-07-01T06:39:56;8.73;;;4.90;;
62123;SDS011;48110;47.532;19.078;2022-07-01T06:42:59;16.60;;;4.57;;
62123;SDS011;48110;47.532;19.078;2022-07-01T06:46:01;13.32;;;4.85;;
62123;SDS011;48110;47.532;19.078;2022-07-01T06:49:05;9.50;;;4.45;;
62123;SDS011;48110;47.532;19.078;2022-07-01T06:52:08;11.93;;;4.40;;
62123;SDS011;48110;47.532;19.078;2022-07-01T06:55:10;8.07;;;3.92;;
62123;SDS011;48110;47.532;19.078;2022-07-01T06:58:13;16.92;;;4.37;;
62123;SDS011;48110;47.532;19.078;2022-07-01T07:01:16;17.25;;;4.60;;
62123;SDS011;48110;47.532;19.078;2022-07-01T07:04:18;11.30;;;4.30;;
62123;SDS011;48110;47.532;19.078;2022-07-01T07:07:41;12.85;;;4.72;;
62123;SDS011;48110;47.532;19.078;2022-07-01T07:10:44;12.10;;;4.50;;
62123;SDS011;48110;47.532;19.078;2022-07-01T07:13:47;13.05;;;4.03;;
62123;SDS011;48110;47.532;19.078;2022-07-01T07:16:49;11.20;;;3.80;;
62123;SDS011;48110;47.532;19.078;2022-07-01T07:19:53;13.85;;;3.60;;
62123;SDS011;48110;47.532;19.078;2022-07-01T07:22:57;13.20;;;3.75;;
62123;SDS011;48110;47.532;19.078;2022-07-01T07:26:00;10.23;;;3.97;;
62123;SDS011;48110;47.532;19.078;2022-07-01T07:29:02;7.50;;;2.97;;
62123;SDS011;48110;47.532;19.078;2022-07-01T07:32:05;8.60;;;3.25;;
62123;SDS011;48110;47.532;19.078;2022-07-01T07:35:10;13.52;;;3.95;;
62123;SDS011;48110;47.532;19.078;2022-07-01T07:38:13;9.52;;;3.60;;
62123;SDS011;48110;47.532;19.078;2022-07-01T07:41:16;11.00;;;3.05;;
62123;SDS011;48110;47.532;19.078;2022-07-01T07:44:18;11.73;;;3.17;;
62123;SDS011;48110;47.532;19.078;2022-07-01T07:47:21;10.00;;;3.58;;
62123;SDS011;48110;47.532;19.078;2022-07-01T07:50:24;11.18;;;3.87;;
62123;SDS011;48110;47.532;19.078;2022-07-01T07:53:26;9.93;;;2.80;;
62123;SDS011;48110;47.532;19.078;2022-07-01T07:56:30;10.07;;;2.37;;
62123;SDS011;48110;47.532;19.078;2022-07-01T07:59:33;8.38;;;2.45;;
62123;SDS011;48110;47.532;19.078;2022-07-01T08:02:36;7.72;;;2.50;;
62123;SDS011;48110;47.532;19.078;2022-07-01T08:05:40;8.68;;;2.30;;
62123;SDS011;48110;47.532;19.078;2022-07-01T08:08:43;7.82;;;1.98;;
62123;SDS011;48110;47.532;19.078;2022-07-01T08:11:45;4.90;;;2.30;;
62123;SDS011;48110;47.532;19.078;2022-07-01T08:14:48;6.45;;;1.95;;
62123;SDS011;48110;47.532;19.078;2022-07-01T08:17:51;7.18;;;2.45;;
62123;SDS011;48110;47.532;19.078;2022-07-01T08:20:53;7.12;;;2.33;;
62123;SDS011;48110;47.532;19.078;2022-07-01T08:23:56;8.43;;;2.45;;
62123;SDS011;48110;47.532;19.078;2022-07-01T08:26:59;9.48;;;2.53;;
62123;SDS011;48110;47.532;19.078;2022-07-01T08:30:03;6.95;;;2.28;;
62123;SDS011;48110;47.532;19.078;2022-07-01T08:33:06;10.02;;;2.33;;
62123;SDS011;48110;47.532;19.078;2022-07-01T08:36:09;10.88;;;2.37;;
62123;SDS011;48110;47.532;19.078;2022-07-01T08:39:12;9.82;;;2.62;;
62123;SDS011;48110;47.532;19.078;2022-07-01T08:42:15;8.85;;;2.70;;
62123;SDS011;48110;47.532;19.078;2022-07-01T08:45:18;10.25;;;2.80;;
62123;SDS011;48110;47.532;19.078;2022-07-01T08:48:21;14.65;;;2.97;;
62123;SDS011;48110;47.532;19.078;2022-07-01T08:51:24;17.70;;;2.95;;
62123;SDS011;48110;47.532;19.078;2022-07-01T08:54:33;9.32;;;2.53;;
62123;SDS011;48110;47.532;19.078;2022-07-01T08:57:36;7.18;;;2.30;;
62123;SDS011;48110;47.532;19.078;2022-07-01T09:00:39;8.50;;;2.53;;
62123;SDS011;48110;47.532;19.078;2022-07-01T09:03:44;8.18;;;2.47;;
62123;SDS011;48110;47.532;19.078;2022-07-01T09:06:50;8.35;;;2.75;;
62123;SDS011;48110;47.532;19.078;2022-07-01T09:09:53;8.82;;;3.03;;
62123;SDS011;48110;47.532;19.078;2022-07-01T09:12:57;8.15;;;2.62;;
62123;SDS011;48110;47.532;19.078;2022-07-01T09:16:10;7.97;;;2.70;;
62123;SDS011;48110;47.532;19.078;2022-07-01T09:19:19;11.45;;;2.65;;
62123;SDS011;48110;47.532;19.078;2022-07-01T09:22:28;6.37;;;2.47;;
62123;SDS011;48110;47.532;19.078;2022-07-01T09:25:32;6.75;;;2.72;;
62123;SDS011;48110;47.532;19.078;2022-07-01T09:28:36;8.48;;;3.10;;
62123;SDS011;48110;47.532;19.078;2022-07-01T09:31:42;7.90;;;2.60;;
62123;SDS011;48110;47.532;19.078;2022-07-01T09:34:51;10.55;;;2.30;;
62123;SDS011;48110;47.532;19.078;2022-07-01T09:37:59;5.40;;;2.20;;
62123;SDS011;48110;47.532;19.078;2022-07-01T09:41:03;7.47;;;2.42;;
62123;SDS011;48110;47.532;19.078;2022-07-01T09:44:14;11.88;;;2.72;;
62123;SDS011;48110;47.532;19.078;2022-07-01T09:47:16;5.53;;;1.77;;
62123;SDS011;48110;47.532;19.078;2022-07-01T09:50:21;8.65;;;2.22;;
62123;SDS011;48110;47.532;19.078;2022-07-01T09:53:24;9.82;;;2.92;;
62123;SDS011;48110;47.532;19.078;2022-07-01T09:56:27;7.62;;;2.30;;
62123;SDS011;48110;47.532;19.078;2022-07-01T09:59:29;6.68;;;2.40;;
62123;SDS011;48110;47.532;19.078;2022-07-01T10:02:33;6.95;;;2.58;;
62123;SDS011;48110;47.532;19.078;2022-07-01T10:05:41;11.12;;;2.35;;
62123;SDS011;48110;47.532;19.078;2022-07-01T10:12:08;9.40;;;2.28;;
62123;SDS011;48110;47.532;19.078;2022-07-01T10:15:28;7.12;;;2.50;;
62123;SDS011;48110;47.532;19.078;2022-07-01T10:18:32;5.97;;;2.30;;
62123;SDS011;48110;47.532;19.078;2022-07-01T10:21:34;4.75;;;2.67;;
62123;SDS011;48110;47.532;19.078;2022-07-01T10:24:37;9.85;;;2.40;;
62123;SDS011;48110;47.532;19.078;2022-07-01T10:27:40;8.85;;;2.20;;
62123;SDS011;48110;47.532;19.078;2022-07-01T10:30:55;6.60;;;2.70;;
62123;SDS011;48110;47.532;19.078;2022-07-01T10:34:06;9.98;;;2.60;;
62123;SDS011;48110;47.532;19.078;2022-07-01T10:37:10;5.90;;;2.30;;
62123;SDS011;48110;47.532;19.078;2022-07-01T10:40:14;4.90;;;1.98;;
62123;SDS011;48110;47.532;19.078;2022-07-01T10:43:31;9.13;;;2.05;;
62123;SDS011;48110;47.532;19.078;2022-07-01T10:46:40;6.90;;;2.30;;
62123;SDS011;48110;47.532;19.078;2022-07-01T10:53:00;6.25;;;2.12;;
62123;SDS011;48110;47.532;19.078;2022-07-01T10:56:04;10.10;;;2.40;;
62123;SDS011;48110;47.532;19.078;2022-07-01T10:59:07;8.20;;;2.35;;
62123;SDS011;48110;47.532;19.078;2022-07-01T11:02:11;6.62;;;2.00;;
62123;SDS011;48110;47.532;19.078;2022-07-01T11:05:21;8.95;;;2.20;;
62123;SDS011;48110;47.532;19.078;2022-07-01T11:08:24;7.93;;;2.65;;
62123;SDS011;48110;47.532;19.078;2022-07-01T11:11:32;6.18;;;2.62;;
62123;SDS011;48110;47.532;19.078;2022-07-01T11:14:36;8.75;;;2.10;;
62123;SDS011;48110;47.532;19.078;2022-07-01T11:17:42;7.37;;;2.00;;
62123;SDS011;48110;47.532;19.078;2022-07-01T11:20:46;9.57;;;2.17;;
62123;SDS011;48110;47.532;19.078;2022-07-01T11:23:52;7.47;;;2.37;;
62123;SDS011;48110;47.532;19.078;2022-07-01T11:27:00;7.70;;;1.83;;
62123;SDS011;48110;47.532;19.078;2022-07-01T11:30:09;5.82;;;1.90;;
62123;SDS011;48110;47.532;19.078;2022-07-01T11:33:22;6.53;;;2.08;;
62123;SDS011;48110;47.532;19.078;2022-07-01T11:36:25;9.38;;;2.05;;
62123;SDS011;48110;47.532;19.078;2022-07-01T11:39:49;8.98;;;2.25;;
62123;SDS011;48110;47.532;19.078;2022-07-01T11:42:51;7.68;;;2.33;;
62123;SDS011;48110;47.532;19.078;2022-07-01T11:45:54;7.37;;;2.40;;
62123;SDS011;48110;47.532;19.078;2022-07-01T11:49:01;6.30;;;2.03;;
62123;SDS011;48110;47.532;19.078;2022-07-01T11:52:14;8.68;;;2.47;;
62123;SDS011;48110;47.532;19.078;2022-07-01T11:55:20;10.98;;;2.60;;
62123;SDS011;48110;47.532;19.078;2022-07-01T12:01:52;9.77;;;2.20;;
62123;SDS011;48110;47.532;19.078;2022-07-01T12:04:56;7.32;;;2.30;;
62123;SDS011;48110;47.532;19.078;2022-07-01T12:08:02;7.68;;;2.12;;
62123;SDS011;48110;47.532;19.078;2022-07-01T12:11:06;6.90;;;2.05;;
62123;SDS011;48110;47.532;19.078;2022-07-01T12:14:08;4.25;;;1.80;;
62123;SDS011;48110;47.532;19.078;2022-07-01T12:17:11;4.65;;;1.98;;
62123;SDS011;48110;47.532;19.078;2022-07-01T12:20:30;4.93;;;1.98;;
62123;SDS011;48110;47.532;19.078;2022-07-01T12:23:34;4.57;;;2.12;;
62123;SDS011;48110;47.532;19.078;2022-07-01T12:26:46;5.15;;;2.10;;
62123;SDS011;48110;47.532;19.078;2022-07-01T12:29:55;8.67;;;1.90;;
62123;SDS011;48110;47.532;19.078;2022-07-01T12:33:07;7.45;;;1.90;;
62123;SDS011;48110;47.532;19.078;2022-07-01T12:36:12;9.57;;;2.10;;
62123;SDS011;48110;47.532;19.078;2022-07-01T12:58:36;8.70;;;2.17;;
62123;SDS011;48110;47.532;19.078;2022-07-01T13:01:39;8.90;;;2.17;;
62123;SDS011;48110;47.532;19.078;2022-07-01T13:04:42;6.07;;;2.20;;
62123;SDS011;48110;47.532;19.078;2022-07-01T13:07:44;5.90;;;2.12;;
62123;SDS011;48110;47.532;19.078;2022-07-01T13:10:47;7.75;;;2.28;;
62123;SDS011;48110;47.532;19.078;2022-07-01T13:13:50;4.70;;;1.87;;
62123;SDS011;48110;47.532;19.078;2022-07-01T13:16:53;7.85;;;2.20;;
62123;SDS011;48110;47.532;19.078;2022-07-01T13:19:56;5.60;;;2.08;;
62123;SDS011;48110;47.532;19.078;2022-07-01T13:22:59;5.45;;;2.22;;
62123;SDS011;48110;47.532;19.078;2022-07-01T13:26:02;9.45;;;2.33;;
62123;SDS011;48110;47.532;19.078;2022-07-01T13:29:07;12.30;;;2.22;;
62123;SDS011;48110;47.532;19.078;2022-07-01T13:32:10;6.62;;;2.10;;
62123;SDS011;48110;47.532;19.078;2022-07-01T13:35:13;6.12;;;2.08;;
62123;SDS011;48110;47.532;19.078;2022-07-01T13:38:17;3.87;;;1.85;;
62123;SDS011;48110;47.532;19.078;2022-07-01T13:41:20;6.20;;;2.17;;
62123;SDS011;48110;47.532;19.078;2022-07-01T13:44:24;3.45;;;1.92;;
62123;SDS011;48110;47.532;19.078;2022-07-01T13:47:26;6.18;;;2.00;;
62123;SDS011;48110;47.532;19.078;2022-07-01T13:50:32;9.48;;;2.30;;
62123;SDS011;48110;47.532;19.078;2022-07-01T13:53:35;3.15;;;1.80;;
62123;SDS011;48110;47.532;19.078;2022-07-01T13:56:39;7.75;;;2.00;;
62123;SDS011;48110;47.532;19.078;2022-07-01T13:59:41;9.60;;;2.30;;
62123;SDS011;48110;47.532;19.078;2022-07-01T14:02:45;5.70;;;2.17;;
62123;SDS011;48110;47.532;19.078;2022-07-01T14:05:48;5.93;;;2.10;;
62123;SDS011;48110;47.532;19.078;2022-07-01T14:08:52;8.60;;;2.58;;
62123;SDS011;48110;47.532;19.078;2022-07-01T14:11:56;7.70;;;2.33;;
62123;SDS011;48110;47.532;19.078;2022-07-01T14:14:59;9.82;;;2.35;;
62123;SDS011;48110;47.532;19.078;2022-07-01T14:18:03;4.05;;;2.25;;
62123;SDS011;48110;47.532;19.078;2022-07-01T14:21:06;7.80;;;2.45;;
62123;SDS011;48110;47.532;19.078;2022-07-01T14:24:10;6.45;;;2.25;;
62123;SDS011;48110;47.532;19.078;2022-07-01T14:27:13;8.63;;;2.00;;
62123;SDS011;48110;47.532;19.078;2022-07-01T14:30:16;6.20;;;2.25;;
62123;SDS011;48110;47.532;19.078;2022-07-01T14:33:19;7.87;;;2.10;;
62123;SDS011;48110;47.532;19.078;2022-07-01T14:36:22;6.87;;;2.10;;
62123;SDS011;48110;47.532;19.078;2022-07-01T14:39:26;7.68;;;2.03;;
62123;SDS011;48110;47.532;19.078;2022-07-01T14:42:29;8.48;;;2.10;;
62123;SDS011;48110;47.532;19.078;2022-07-01T14:45:32;6.90;;;2.20;;
62123;SDS011;48110;47.532;19.078;2022-07-01T14:48:35;11.68;;;2.35;;
62123;SDS011;48110;47.532;19.078;2022-07-01T14:51:40;13.68;;;2.17;;
62123;SDS011;48110;47.532;19.078;2022-07-01T14:54:44;8.50;;;2.40;;
62123;SDS011;48110;47.532;19.078;2022-07-01T14:57:46;5.55;;;2.05;;
62123;SDS011;48110;47.532;19.078;2022-07-01T15:00:49;6.20;;;2.60;;
62123;SDS011;48110;47.532;19.078;2022-07-01T15:03:52;8.05;;;2.40;;
62123;SDS011;48110;47.532;19.078;2022-07-01T15:06:55;8.25;;;2.90;;
62123;SDS011;48110;47.532;19.078;2022-07-01T15:09:58;9.15;;;2.25;;
62123;SDS011;48110;47.532;19.078;2022-07-01T15:13:07;7.43;;;2.45;;
62123;SDS011;48110;47.532;19.078;2022-07-01T15:16:11;8.35;;;2.30;;
62123;SDS011;48110;47.532;19.078;2022-07-01T15:19:17;5.05;;;2.10;;
62123;SDS011;48110;47.532;19.078;2022-07-01T15:22:20;9.43;;;2.47;;
62123;SDS011;48110;47.532;19.078;2022-07-01T15:25:23;6.25;;;2.45;;
62123;SDS011;48110;47.532;19.078;2022-07-01T15:28:27;9.00;;;2.40;;
62123;SDS011;48110;47.532;19.078;2022-07-01T15:31:30;10.75;;;2.40;;
62123;SDS011;48110;47.532;19.078;2022-07-01T15:34:50;5.35;;;2.40;;
62123;SDS011;48110;47.532;19.078;2022-07-01T15:37:53;9.40;;;2.65;;
62123;SDS011;48110;47.532;19.078;2022-07-01T15:40:55;9.60;;;2.47;;
62123;SDS011;48110;47.532;19.078;2022-07-01T15:44:00;6.15;;;2.35;;
62123;SDS011;48110;47.532;19.078;2022-07-01T15:47:05;6.55;;;2.22;;
62123;SDS011;48110;47.532;19.078;2022-07-01T15:50:27;12.85;;;2.70;;
62123;SDS011;48110;47.532;19.078;2022-07-01T15:53:31;7.18;;;2.60;;
62123;SDS011;48110;47.532;19.078;2022-07-01T15:56:35;10.55;;;2.83;;
62123;SDS011;48110;47.532;19.078;2022-07-01T15:59:38;8.02;;;2.80;;
62123;SDS011;48110;47.532;19.078;2022-07-01T16:02:42;9.77;;;2.78;;
62123;SDS011;48110;47.532;19.078;2022-07-01T16:05:46;12.15;;;3.05;;
62123;SDS011;48110;47.532;19.078;2022-07-01T16:09:00;10.48;;;3.05;;
62123;SDS011;48110;47.532;19.078;2022-07-01T16:12:03;10.13;;;3.20;;
62123;SDS011;48110;47.532;19.078;2022-07-01T16:15:06;9.13;;;2.50;;
62123;SDS011;48110;47.532;19.078;2022-07-01T16:18:11;7.68;;;2.80;;
62123;SDS011;48110;47.532;19.078;2022-07-01T16:21:14;11.82;;;2.87;;
62123;SDS011;48110;47.532;19.078;2022-07-01T16:24:18;8.68;;;2.50;;
62123;SDS011;48110;47.532;19.078;2022-07-01T16:27:21;8.70;;;2.97;;
62123;SDS011;48110;47.532;19.078;2022-07-01T16:30:26;12.32;;;2.90;;
62123;SDS011;48110;47.532;19.078;2022-07-01T16:33:32;12.80;;;3.62;;
62123;SDS011;48110;47.532;19.078;2022-07-01T16:36:35;7.18;;;3.33;;
62123;SDS011;48110;47.532;19.078;2022-07-01T16:39:46;11.10;;;2.90;;
62123;SDS011;48110;47.532;19.078;2022-07-01T16:42:56;10.10;;;2.85;;
62123;SDS011;48110;47.532;19.078;2022-07-01T16:45:58;10.05;;;3.20;;
62123;SDS011;48110;47.532;19.078;2022-07-01T16:49:13;7.47;;;2.83;;
62123;SDS011;48110;47.532;19.078;2022-07-01T16:52:22;8.35;;;2.97;;
62123;SDS011;48110;47.532;19.078;2022-07-01T16:55:36;9.23;;;2.95;;
62123;SDS011;48110;47.532;19.078;2022-07-01T16:58:47;8.35;;;3.20;;
62123;SDS011;48110;47.532;19.078;2022-07-01T17:02:04;9.75;;;3.00;;
62123;SDS011;48110;47.532;19.078;2022-07-01T17:05:07;8.68;;;3.03;;
62123;SDS011;48110;47.532;19.078;2022-07-01T17:08:12;14.85;;;3.67;;
62123;SDS011;48110;47.532;19.078;2022-07-01T17:11:16;7.70;;;3.22;;
62123;SDS011;48110;47.532;19.078;2022-07-01T17:14:20;6.57;;;3.10;;
62123;SDS011;48110;47.532;19.078;2022-07-01T17:17:26;8.27;;;3.33;;
62123;SDS011;48110;47.532;19.078;2022-07-01T17:20:32;11.27;;;3.62;;
62123;SDS011;48110;47.532;19.078;2022-07-01T17:30:03;10.60;;;3.45;;
62123;SDS011;48110;47.532;19.078;2022-07-01T17:33:07;7.93;;;3.78;;
62123;SDS011;48110;47.532;19.078;2022-07-01T17:36:21;13.90;;;3.60;;
62123;SDS011;48110;47.532;19.078;2022-07-01T17:39:36;13.82;;;3.33;;
62123;SDS011;48110;47.532;19.078;2022-07-01T17:42:41;9.10;;;3.50;;
62123;SDS011;48110;47.532;19.078;2022-07-01T17:45:48;7.05;;;3.15;;
62123;SDS011;48110;47.532;19.078;2022-07-01T17:48:53;11.63;;;3.83;;
62123;SDS011;48110;47.532;19.078;2022-07-01T17:51:59;17.37;;;3.78;;
62123;SDS011;48110;47.532;19.078;2022-07-01T17:55:05;13.32;;;3.65;;
62123;SDS011;48110;47.532;19.078;2022-07-01T17:58:09;11.12;;;3.70;;
62123;SDS011;48110;47.532;19.078;2022-07-01T18:01:14;9.88;;;3.67;;
62123;SDS011;48110;47.532;19.078;2022-07-01T18:04:19;9.07;;;3.65;;
62123;SDS011;48110;47.532;19.078;2022-07-01T18:07:27;7.22;;;3.28;;
62123;SDS011;48110;47.532;19.078;2022-07-01T18:11:04;9.98;;;3.70;;
62123;SDS011;48110;47.532;19.078;2022-07-01T18:17:56;7.63;;;4.27;;
62123;SDS011;48110;47.532;19.078;2022-07-01T18:24:11;10.07;;;3.83;;
62123;SDS011;48110;47.532;19.078;2022-07-01T18:27:18;11.02;;;3.72;;
62123;SDS011;48110;47.532;19.078;2022-07-01T18:30:24;10.68;;;3.78;;
62123;SDS011;48110;47.532;19.078;2022-07-01T18:36:36;11.25;;;3.78;;
62123;SDS011;48110;47.532;19.078;2022-07-01T18:39:43;9.73;;;3.78;;
62123;SDS011;48110;47.532;19.078;2022-07-01T18:42:46;7.07;;;3.58;;
62123;SDS011;48110;47.532;19.078;2022-07-01T18:45:49;16.08;;;4.37;;
62123;SDS011;48110;47.532;19.078;2022-07-01T18:48:52;10.88;;;3.78;;
62123;SDS011;48110;47.532;19.078;2022-07-01T18:51:54;12.43;;;3.78;;
62123;SDS011;48110;47.532;19.078;2022-07-01T18:54:57;7.97;;;3.17;;